sensor_id;sensor_type;location;lat;lon;timestamp;P1;durP1;ratioP1;P2;durP2;ratioP2
49460;SDS011;35355;49.198;-0.368;2023-04-01T00:01:27;20.02;;;2.38;;
49460;SDS011;35355;49.198;-0.368;2023-04-01T00:03:53;27.08;;;2.35;;
49460;SDS011;35355;49.198;-0.368;2023-04-01T00:06:19;18.20;;;2.75;;
49460;SDS011;35355;49.198;-0.368;2023-04-01T00:08:44;17.52;;;2.17;;
49460;SDS011;35355;49.198;-0.368;2023-04-01T00:11:10;25.30;;;2.97;;
49460;SDS011;35355;49.198;-0.368;2023-04-01T00:13:36;22.52;;;2.53;;
49460;SDS011;35355;49.198;-0.368;2023-04-01T00:16:01;30.40;;;4.03;;
49460;SDS011;35355;49.198;-0.368;2023-04-01T00:18:27;21.40;;;3.20;;
49460;SDS011;35355;49.198;-0.368;2023-04-01T00:20:53;20.00;;;2.97;;
49460;SDS011;35355;49.198;-0.368;2023-04-01T00:23:19;20.75;;;2.55;;
49460;SDS011;35355;49.198;-0.368;2023-04-01T00:25:45;10.70;;;1.30;;
49460;SDS011;35355;49.198;-0.368;2023-04-01T00:28:12;21.70;;;2.20;;
49460;SDS011;35355;49.198;-0.368;2023-04-01T00:30:40;17.88;;;2.75;;
49460;SDS011;35355;49.198;-0.368;2023-04-01T00:33:06;23.15;;;3.15;;
49460;SDS011;35355;49.198;-0.368;2023-04-01T00:35:31;16.50;;;2.22;;
49460;SDS011;35355;49.198;-0.368;2023-04-01T00:37:57;14.38;;;1.50;;
49460;SDS011;35355;49.198;-0.368;2023-04-01T00:40:31;18.98;;;2.63;;
49460;SDS011;35355;49.198;-0.368;2023-04-01T00:42:59;24.10;;;3.47;;
49460;SDS011;35355;49.198;-0.368;2023-04-01T00:45:36;24.42;;;3.38;;
49460;SDS011;35355;49.198;-0.368;2023-04-01T00:48:08;23.98;;;3.47;;
49460;SDS011;35355;49.198;-0.368;2023-04-01T00:50:34;24.77;;;3.70;;
49460;SDS011;35355;49.198;-0.368;2023-04-01T00:53:00;19.50;;;2.22;;
49460;SDS011;35355;49.198;-0.368;2023-04-01T00:55:28;20.88;;;1.83;;
49460;SDS011;35355;49.198;-0.368;2023-04-01T00:57:55;22.05;;;2.58;;
49460;SDS011;35355;49.198;-0.368;2023-04-01T01:00:23;13.98;;;1.85;;
49460;SDS011;35355;49.198;-0.368;2023-04-01T01:02:49;13.18;;;1.85;;
49460;SDS011;35355;49.198;-0.368;2023-04-01T01:05:16;18.13;;;3.10;;
49460;SDS011;35355;49.198;-0.368;2023-04-01T01:07:47;18.85;;;2.65;;
49460;SDS011;35355;49.198;-0.368;2023-04-01T01:10:24;14.63;;;1.83;;
49460;SDS011;35355;49.198;-0.368;2023-04-01T01:15:32;12.52;;;1.92;;
49460;SDS011;35355;49.198;-0.368;2023-04-01T01:18:22;34.53;;;2.55;;
49460;SDS011;35355;49.198;-0.368;2023-04-01T01:23:57;16.70;;;1.67;;
49460;SDS011;35355;49.198;-0.368;2023-04-01T01:35:22;12.07;;;2.00;;
49460;SDS011;35355;49.198;-0.368;2023-04-01T01:37:40;26.48;;;2.83;;
49460;SDS011;35355;49.198;-0.368;2023-04-01T01:40:09;15.50;;;1.75;;
49460;SDS011;35355;49.198;-0.368;2023-04-01T01:42:43;14.43;;;1.58;;
49460;SDS011;35355;49.198;-0.368;2023-04-01T01:45:14;22.90;;;2.40;;
49460;SDS011;35355;49.198;-0.368;2023-04-01T01:47:43;16.02;;;1.95;;
49460;SDS011;35355;49.198;-0.368;2023-04-01T01:50:11;17.10;;;2.40;;
49460;SDS011;35355;49.198;-0.368;2023-04-01T01:52:37;12.90;;;2.35;;
49460;SDS011;35355;49.198;-0.368;2023-04-01T01:55:03;17.05;;;2.88;;
49460;SDS011;35355;49.198;-0.368;2023-04-01T01:57:48;20.60;;;2.20;;
49460;SDS011;35355;49.198;-0.368;2023-04-01T02:00:14;15.48;;;2.28;;
49460;SDS011;35355;49.198;-0.368;2023-04-01T02:02:42;18.00;;;2.42;;
49460;SDS011;35355;49.198;-0.368;2023-04-01T02:05:10;17.45;;;1.83;;
49460;SDS011;35355;49.198;-0.368;2023-04-01T02:07:40;21.90;;;3.22;;
49460;SDS011;35355;49.198;-0.368;2023-04-01T02:10:10;15.98;;;2.92;;
49460;SDS011;35355;49.198;-0.368;2023-04-01T02:12:35;18.80;;;2.22;;
49460;SDS011;35355;49.198;-0.368;2023-04-01T02:15:05;19.33;;;2.55;;
49460;SDS011;35355;49.198;-0.368;2023-04-01T02:17:33;23.83;;;2.75;;
49460;SDS011;35355;49.198;-0.368;2023-04-01T02:20:04;29.75;;;3.40;;
49460;SDS011;35355;49.198;-0.368;2023-04-01T02:22:43;15.73;;;1.90;;
49460;SDS011;35355;49.198;-0.368;2023-04-01T02:25:14;16.38;;;2.45;;
49460;SDS011;35355;49.198;-0.368;2023-04-01T02:27:43;22.23;;;2.40;;
49460;SDS011;35355;49.198;-0.368;2023-04-01T02:30:11;17.65;;;2.63;;
49460;SDS011;35355;49.198;-0.368;2023-04-01T02:32:38;20.00;;;2.00;;
49460;SDS011;35355;49.198;-0.368;2023-04-01T02:35:06;25.20;;;2.70;;
49460;SDS011;35355;49.198;-0.368;2023-04-01T02:37:33;26.08;;;2.97;;
49460;SDS011;35355;49.198;-0.368;2023-04-01T02:40:02;19.23;;;4.47;;
49460;SDS011;35355;49.198;-0.368;2023-04-01T02:42:31;15.70;;;2.80;;
49460;SDS011;35355;49.198;-0.368;2023-04-01T02:44:57;23.30;;;1.73;;
49460;SDS011;35355;49.198;-0.368;2023-04-01T02:47:22;14.10;;;2.30;;
49460;SDS011;35355;49.198;-0.368;2023-04-01T02:49:47;21.48;;;4.00;;
49460;SDS011;35355;49.198;-0.368;2023-04-01T02:52:13;14.43;;;2.63;;
49460;SDS011;35355;49.198;-0.368;2023-04-01T02:54:38;14.23;;;1.98;;
49460;SDS011;35355;49.198;-0.368;2023-04-01T02:57:03;18.63;;;3.05;;
49460;SDS011;35355;49.198;-0.368;2023-04-01T02:59:29;19.10;;;1.67;;
49460;SDS011;35355;49.198;-0.368;2023-04-01T03:01:54;23.00;;;2.22;;
49460;SDS011;35355;49.198;-0.368;2023-04-01T03:04:20;20.10;;;2.50;;
49460;SDS011;35355;49.198;-0.368;2023-04-01T03:06:45;20.20;;;2.05;;
49460;SDS011;35355;49.198;-0.368;2023-04-01T03:09:10;22.25;;;2.25;;
49460;SDS011;35355;49.198;-0.368;2023-04-01T03:11:36;21.02;;;2.17;;
49460;SDS011;35355;49.198;-0.368;2023-04-01T03:14:01;19.05;;;2.13;;
49460;SDS011;35355;49.198;-0.368;2023-04-01T03:16:27;21.73;;;2.83;;
49460;SDS011;35355;49.198;-0.368;2023-04-01T03:18:52;20.83;;;2.47;;
49460;SDS011;35355;49.198;-0.368;2023-04-01T03:21:22;25.73;;;2.42;;
49460;SDS011;35355;49.198;-0.368;2023-04-01T03:23:48;18.75;;;2.75;;
49460;SDS011;35355;49.198;-0.368;2023-04-01T03:26:14;21.35;;;2.05;;
49460;SDS011;35355;49.198;-0.368;2023-04-01T03:28:40;16.80;;;1.88;;
49460;SDS011;35355;49.198;-0.368;2023-04-01T03:31:05;33.13;;;2.30;;
49460;SDS011;35355;49.198;-0.368;2023-04-01T03:33:31;12.95;;;1.92;;
49460;SDS011;35355;49.198;-0.368;2023-04-01T03:35:57;12.57;;;2.30;;
49460;SDS011;35355;49.198;-0.368;2023-04-01T03:38:22;10.95;;;1.42;;
49460;SDS011;35355;49.198;-0.368;2023-04-01T03:40:48;13.20;;;2.47;;
49460;SDS011;35355;49.198;-0.368;2023-04-01T03:43:13;16.15;;;2.10;;
49460;SDS011;35355;49.198;-0.368;2023-04-01T03:45:49;17.30;;;1.83;;
49460;SDS011;35355;49.198;-0.368;2023-04-01T03:48:15;22.38;;;3.30;;
49460;SDS011;35355;49.198;-0.368;2023-04-01T03:50:41;13.35;;;1.65;;
49460;SDS011;35355;49.198;-0.368;2023-04-01T03:53:06;17.77;;;2.30;;
49460;SDS011;35355;49.198;-0.368;2023-04-01T03:55:32;13.13;;;1.42;;
49460;SDS011;35355;49.198;-0.368;2023-04-01T03:57:57;14.30;;;1.42;;
49460;SDS011;35355;49.198;-0.368;2023-04-01T04:00:23;12.23;;;2.22;;
49460;SDS011;35355;49.198;-0.368;2023-04-01T04:02:48;15.55;;;2.10;;
49460;SDS011;35355;49.198;-0.368;2023-04-01T04:05:14;14.23;;;2.33;;
49460;SDS011;35355;49.198;-0.368;2023-04-01T04:07:39;20.92;;;2.50;;
49460;SDS011;35355;49.198;-0.368;2023-04-01T04:10:05;13.32;;;1.83;;
49460;SDS011;35355;49.198;-0.368;2023-04-01T04:12:31;21.15;;;2.97;;
49460;SDS011;35355;49.198;-0.368;2023-04-01T04:14:56;26.10;;;2.42;;
49460;SDS011;35355;49.198;-0.368;2023-04-01T04:17:22;14.95;;;1.77;;
49460;SDS011;35355;49.198;-0.368;2023-04-01T04:19:47;19.25;;;3.47;;
49460;SDS011;35355;49.198;-0.368;2023-04-01T04:22:12;21.40;;;2.47;;
49460;SDS011;35355;49.198;-0.368;2023-04-01T04:24:38;33.95;;;3.97;;
49460;SDS011;35355;49.198;-0.368;2023-04-01T04:27:03;17.05;;;3.05;;
49460;SDS011;35355;49.198;-0.368;2023-04-01T04:29:29;14.68;;;2.22;;
49460;SDS011;35355;49.198;-0.368;2023-04-01T04:31:54;14.68;;;1.95;;
49460;SDS011;35355;49.198;-0.368;2023-04-01T04:34:20;21.30;;;1.95;;
49460;SDS011;35355;49.198;-0.368;2023-04-01T04:36:47;22.17;;;3.28;;
49460;SDS011;35355;49.198;-0.368;2023-04-01T04:39:12;13.50;;;2.97;;
49460;SDS011;35355;49.198;-0.368;2023-04-01T04:41:38;15.77;;;2.22;;
49460;SDS011;35355;49.198;-0.368;2023-04-01T04:44:03;22.90;;;1.83;;
49460;SDS011;35355;49.198;-0.368;2023-04-01T04:46:29;20.88;;;2.80;;
49460;SDS011;35355;49.198;-0.368;2023-04-01T04:48:55;23.00;;;2.30;;
49460;SDS011;35355;49.198;-0.368;2023-04-01T04:51:21;20.17;;;2.67;;
49460;SDS011;35355;49.198;-0.368;2023-04-01T04:53:47;25.13;;;2.70;;
49460;SDS011;35355;49.198;-0.368;2023-04-01T04:56:13;15.32;;;2.53;;
49460;SDS011;35355;49.198;-0.368;2023-04-01T04:58:42;24.38;;;2.15;;
49460;SDS011;35355;49.198;-0.368;2023-04-01T05:01:11;22.00;;;2.30;;
49460;SDS011;35355;49.198;-0.368;2023-04-01T05:03:39;17.55;;;2.65;;
49460;SDS011;35355;49.198;-0.368;2023-04-01T05:06:05;20.27;;;2.72;;
49460;SDS011;35355;49.198;-0.368;2023-04-01T05:08:31;8.77;;;1.73;;
49460;SDS011;35355;49.198;-0.368;2023-04-01T05:10:58;12.30;;;1.25;;
49460;SDS011;35355;49.198;-0.368;2023-04-01T05:13:24;27.63;;;2.00;;
49460;SDS011;35355;49.198;-0.368;2023-04-01T05:15:49;16.02;;;1.88;;
49460;SDS011;35355;49.198;-0.368;2023-04-01T05:18:15;12.80;;;1.63;;
49460;SDS011;35355;49.198;-0.368;2023-04-01T05:20:50;10.88;;;2.25;;
49460;SDS011;35355;49.198;-0.368;2023-04-01T05:23:18;16.15;;;2.75;;
49460;SDS011;35355;49.198;-0.368;2023-04-01T05:25:46;14.63;;;2.25;;
49460;SDS011;35355;49.198;-0.368;2023-04-01T05:28:12;18.50;;;2.65;;
49460;SDS011;35355;49.198;-0.368;2023-04-01T05:30:39;12.60;;;1.88;;
49460;SDS011;35355;49.198;-0.368;2023-04-01T05:33:06;15.30;;;1.98;;
49460;SDS011;35355;49.198;-0.368;2023-04-01T05:35:32;14.70;;;1.70;;
49460;SDS011;35355;49.198;-0.368;2023-04-01T05:37:57;11.30;;;1.90;;
49460;SDS011;35355;49.198;-0.368;2023-04-01T05:40:22;19.88;;;1.95;;
49460;SDS011;35355;49.198;-0.368;2023-04-01T05:42:48;21.88;;;3.25;;
49460;SDS011;35355;49.198;-0.368;2023-04-01T05:45:13;20.90;;;2.05;;
49460;SDS011;35355;49.198;-0.368;2023-04-01T05:47:40;20.95;;;3.38;;
49460;SDS011;35355;49.198;-0.368;2023-04-01T05:50:07;25.48;;;3.38;;
49460;SDS011;35355;49.198;-0.368;2023-04-01T05:52:33;22.73;;;2.40;;
49460;SDS011;35355;49.198;-0.368;2023-04-01T05:54:59;19.23;;;2.60;;
49460;SDS011;35355;49.198;-0.368;2023-04-01T05:57:25;23.83;;;2.78;;
49460;SDS011;35355;49.198;-0.368;2023-04-01T05:59:51;11.30;;;1.98;;
49460;SDS011;35355;49.198;-0.368;2023-04-01T06:02:17;17.45;;;2.60;;
49460;SDS011;35355;49.198;-0.368;2023-04-01T06:04:43;17.00;;;1.90;;
49460;SDS011;35355;49.198;-0.368;2023-04-01T06:07:13;14.32;;;2.28;;
49460;SDS011;35355;49.198;-0.368;2023-04-01T06:09:40;15.63;;;2.13;;
49460;SDS011;35355;49.198;-0.368;2023-04-01T06:14:42;17.42;;;1.95;;
49460;SDS011;35355;49.198;-0.368;2023-04-01T06:17:36;16.63;;;2.22;;
49460;SDS011;35355;49.198;-0.368;2023-04-01T06:37:03;17.42;;;2.00;;
49460;SDS011;35355;49.198;-0.368;2023-04-01T06:39:53;10.63;;;1.83;;
49460;SDS011;35355;49.198;-0.368;2023-04-01T06:45:20;14.95;;;2.05;;
49460;SDS011;35355;49.198;-0.368;2023-04-01T06:50:33;19.08;;;2.63;;
49460;SDS011;35355;49.198;-0.368;2023-04-01T06:56:20;15.85;;;2.38;;
49460;SDS011;35355;49.198;-0.368;2023-04-01T06:58:53;25.13;;;3.08;;
49460;SDS011;35355;49.198;-0.368;2023-04-01T07:01:23;18.87;;;2.63;;
49460;SDS011;35355;49.198;-0.368;2023-04-01T07:04:29;16.73;;;2.03;;
49460;SDS011;35355;49.198;-0.368;2023-04-01T07:06:52;17.92;;;2.40;;
49460;SDS011;35355;49.198;-0.368;2023-04-01T07:09:31;23.02;;;2.92;;
49460;SDS011;35355;49.198;-0.368;2023-04-01T07:12:01;12.82;;;1.35;;
49460;SDS011;35355;49.198;-0.368;2023-04-01T07:14:36;12.77;;;1.48;;
49460;SDS011;35355;49.198;-0.368;2023-04-01T07:17:19;16.13;;;1.88;;
49460;SDS011;35355;49.198;-0.368;2023-04-01T07:19:50;9.43;;;1.65;;
49460;SDS011;35355;49.198;-0.368;2023-04-01T07:25:02;19.73;;;1.85;;
49460;SDS011;35355;49.198;-0.368;2023-04-01T07:27:36;19.10;;;2.35;;
49460;SDS011;35355;49.198;-0.368;2023-04-01T07:30:01;16.75;;;1.98;;
49460;SDS011;35355;49.198;-0.368;2023-04-01T07:35:41;11.20;;;1.30;;
49460;SDS011;35355;49.198;-0.368;2023-04-01T07:40:43;10.85;;;1.08;;
49460;SDS011;35355;49.198;-0.368;2023-04-01T07:46:17;9.32;;;2.05;;
49460;SDS011;35355;49.198;-0.368;2023-04-01T07:51:30;15.82;;;1.80;;
49460;SDS011;35355;49.198;-0.368;2023-04-01T07:54:07;19.25;;;1.95;;
49460;SDS011;35355;49.198;-0.368;2023-04-01T08:02:01;19.02;;;1.55;;
49460;SDS011;35355;49.198;-0.368;2023-04-01T08:20:43;15.68;;;1.27;;
49460;SDS011;35355;49.198;-0.368;2023-04-01T08:25:39;9.82;;;1.73;;
49460;SDS011;35355;49.198;-0.368;2023-04-01T08:28:11;14.70;;;2.42;;
49460;SDS011;35355;49.198;-0.368;2023-04-01T08:30:50;12.50;;;1.15;;
49460;SDS011;35355;49.198;-0.368;2023-04-01T08:33:24;10.95;;;1.55;;
49460;SDS011;35355;49.198;-0.368;2023-04-01T08:36:08;11.38;;;1.25;;
49460;SDS011;35355;49.198;-0.368;2023-04-01T08:39:01;10.68;;;1.20;;
49460;SDS011;35355;49.198;-0.368;2023-04-01T08:47:09;9.13;;;0.77;;
49460;SDS011;35355;49.198;-0.368;2023-04-01T08:52:41;11.05;;;1.52;;
49460;SDS011;35355;49.198;-0.368;2023-04-01T08:55:30;4.90;;;0.80;;
49460;SDS011;35355;49.198;-0.368;2023-04-01T09:03:37;11.10;;;1.08;;
49460;SDS011;35355;49.198;-0.368;2023-04-01T09:06:24;14.30;;;1.45;;
49460;SDS011;35355;49.198;-0.368;2023-04-01T09:11:26;9.90;;;1.40;;
49460;SDS011;35355;49.198;-0.368;2023-04-01T09:19:45;7.13;;;1.13;;
49460;SDS011;35355;49.198;-0.368;2023-04-01T09:35:47;20.55;;;1.55;;
49460;SDS011;35355;49.198;-0.368;2023-04-01T09:38:22;11.93;;;1.52;;
49460;SDS011;35355;49.198;-0.368;2023-04-01T09:44:18;11.73;;;0.88;;
49460;SDS011;35355;49.198;-0.368;2023-04-01T09:52:10;11.27;;;1.35;;
49460;SDS011;35355;49.198;-0.368;2023-04-01T09:58:19;8.98;;;1.38;;
49460;SDS011;35355;49.198;-0.368;2023-04-01T10:03:54;12.13;;;1.25;;
49460;SDS011;35355;49.198;-0.368;2023-04-01T10:06:33;6.55;;;1.20;;
49460;SDS011;35355;49.198;-0.368;2023-04-01T10:12:24;11.32;;;1.00;;
49460;SDS011;35355;49.198;-0.368;2023-04-01T10:40:31;11.48;;;1.55;;
49460;SDS011;35355;49.198;-0.368;2023-04-01T10:46:19;10.27;;;1.08;;
49460;SDS011;35355;49.198;-0.368;2023-04-01T11:00:29;5.15;;;0.65;;
49460;SDS011;35355;49.198;-0.368;2023-04-01T11:06:33;4.00;;;0.98;;
49460;SDS011;35355;49.198;-0.368;2023-04-01T11:29:03;5.63;;;1.50;;
49460;SDS011;35355;49.198;-0.368;2023-04-01T11:31:35;7.40;;;1.30;;
49460;SDS011;35355;49.198;-0.368;2023-04-01T11:48:08;4.90;;;0.80;;
49460;SDS011;35355;49.198;-0.368;2023-04-01T11:50:46;2.90;;;0.90;;
49460;SDS011;35355;49.198;-0.368;2023-04-01T11:57:12;14.63;;;1.67;;
49460;SDS011;35355;49.198;-0.368;2023-04-01T12:01:59;8.68;;;0.93;;
49460;SDS011;35355;49.198;-0.368;2023-04-01T12:09:49;3.00;;;0.40;;
49460;SDS011;35355;49.198;-0.368;2023-04-01T12:12:38;5.10;;;0.60;;
49460;SDS011;35355;49.198;-0.368;2023-04-01T12:28:49;8.80;;;0.73;;
49460;SDS011;35355;49.198;-0.368;2023-04-01T12:31:51;5.65;;;1.13;;
49460;SDS011;35355;49.198;-0.368;2023-04-01T12:37:06;8.63;;;0.98;;
49460;SDS011;35355;49.198;-0.368;2023-04-01T12:39:52;8.68;;;1.73;;
49460;SDS011;35355;49.198;-0.368;2023-04-01T12:42:36;7.35;;;0.80;;
49460;SDS011;35355;49.198;-0.368;2023-04-01T12:48:18;4.88;;;0.90;;
49460;SDS011;35355;49.198;-0.368;2023-04-01T12:56:53;6.68;;;0.50;;
49460;SDS011;35355;49.198;-0.368;2023-04-01T12:59:51;3.72;;;0.50;;
49460;SDS011;35355;49.198;-0.368;2023-04-01T13:02:36;4.53;;;0.90;;
49460;SDS011;35355;49.198;-0.368;2023-04-01T13:19:01;7.93;;;0.57;;
49460;SDS011;35355;49.198;-0.368;2023-04-01T13:32:59;13.98;;;2.05;;
49460;SDS011;35355;49.198;-0.368;2023-04-01T13:35:39;4.97;;;0.60;;
49460;SDS011;35355;49.198;-0.368;2023-04-01T13:43:39;6.70;;;1.05;;
49460;SDS011;35355;49.198;-0.368;2023-04-01T13:54:25;2.42;;;0.38;;
49460;SDS011;35355;49.198;-0.368;2023-04-01T14:02:33;3.17;;;0.65;;
49460;SDS011;35355;49.198;-0.368;2023-04-01T14:10:43;2.25;;;0.47;;
49460;SDS011;35355;49.198;-0.368;2023-04-01T14:13:28;13.10;;;0.98;;
49460;SDS011;35355;49.198;-0.368;2023-04-01T14:16:10;6.25;;;0.50;;
49460;SDS011;35355;49.198;-0.368;2023-04-01T14:22:12;5.93;;;0.65;;
49460;SDS011;35355;49.198;-0.368;2023-04-01T14:27:18;5.65;;;0.50;;
49460;SDS011;35355;49.198;-0.368;2023-04-01T14:33:26;3.63;;;0.57;;
49460;SDS011;35355;49.198;-0.368;2023-04-01T14:44:27;3.15;;;1.00;;
49460;SDS011;35355;49.198;-0.368;2023-04-01T14:49:43;12.43;;;0.80;;
49460;SDS011;35355;49.198;-0.368;2023-04-01T14:52:23;5.80;;;1.13;;
49460;SDS011;35355;49.198;-0.368;2023-04-01T14:54:53;7.57;;;0.50;;
49460;SDS011;35355;49.198;-0.368;2023-04-01T14:57:23;10.75;;;1.10;;
49460;SDS011;35355;49.198;-0.368;2023-04-01T15:00:09;4.07;;;1.02;;
49460;SDS011;35355;49.198;-0.368;2023-04-01T15:16:41;0.73;;;0.22;;
49460;SDS011;35355;49.198;-0.368;2023-04-01T15:25:01;2.17;;;0.25;;
49460;SDS011;35355;49.198;-0.368;2023-04-01T15:33:39;4.47;;;0.52;;
49460;SDS011;35355;49.198;-0.368;2023-04-01T15:39:14;3.67;;;0.60;;
49460;SDS011;35355;49.198;-0.368;2023-04-01T15:47:32;8.60;;;1.20;;
49460;SDS011;35355;49.198;-0.368;2023-04-01T15:58:40;7.13;;;0.50;;
49460;SDS011;35355;49.198;-0.368;2023-04-01T16:12:33;6.53;;;0.85;;
49460;SDS011;35355;49.198;-0.368;2023-04-01T16:18:07;10.32;;;1.02;;
49460;SDS011;35355;49.198;-0.368;2023-04-01T16:23:43;19.20;;;2.00;;
49460;SDS011;35355;49.198;-0.368;2023-04-01T16:26:19;8.18;;;0.45;;
49460;SDS011;35355;49.198;-0.368;2023-04-01T16:29:02;11.43;;;2.58;;
49460;SDS011;35355;49.198;-0.368;2023-04-01T16:31:37;8.32;;;1.05;;
49460;SDS011;35355;49.198;-0.368;2023-04-01T16:34:27;7.05;;;0.90;;
49460;SDS011;35355;49.198;-0.368;2023-04-01T16:37:09;13.93;;;1.77;;
49460;SDS011;35355;49.198;-0.368;2023-04-01T16:39:44;5.70;;;0.65;;
49460;SDS011;35355;49.198;-0.368;2023-04-01T16:42:32;11.27;;;1.42;;
49460;SDS011;35355;49.198;-0.368;2023-04-01T16:45:02;8.10;;;0.80;;
49460;SDS011;35355;49.198;-0.368;2023-04-01T16:47:54;9.93;;;1.00;;
49460;SDS011;35355;49.198;-0.368;2023-04-01T16:50:27;8.70;;;1.40;;
49460;SDS011;35355;49.198;-0.368;2023-04-01T16:53:16;7.90;;;1.30;;
49460;SDS011;35355;49.198;-0.368;2023-04-01T16:55:50;11.63;;;0.85;;
49460;SDS011;35355;49.198;-0.368;2023-04-01T16:58:35;14.73;;;1.90;;
49460;SDS011;35355;49.198;-0.368;2023-04-01T17:01:16;14.48;;;1.02;;
49460;SDS011;35355;49.198;-0.368;2023-04-01T17:04:07;8.48;;;1.83;;
49460;SDS011;35355;49.198;-0.368;2023-04-01T17:28:02;14.32;;;1.65;;
49460;SDS011;35355;49.198;-0.368;2023-04-01T17:30:37;10.00;;;0.93;;
49460;SDS011;35355;49.198;-0.368;2023-04-01T17:36:12;10.43;;;0.82;;
49460;SDS011;35355;49.198;-0.368;2023-04-01T17:49:38;10.07;;;1.17;;
49460;SDS011;35355;49.198;-0.368;2023-04-01T18:03:24;5.70;;;0.95;;
49460;SDS011;35355;49.198;-0.368;2023-04-01T18:11:54;5.10;;;1.27;;
49460;SDS011;35355;49.198;-0.368;2023-04-01T18:17:25;6.88;;;1.70;;
49460;SDS011;35355;49.198;-0.368;2023-04-01T18:25:36;12.63;;;1.65;;
49460;SDS011;35355;49.198;-0.368;2023-04-01T18:30:43;6.03;;;1.15;;
49460;SDS011;35355;49.198;-0.368;2023-04-01T18:33:19;11.65;;;1.20;;
49460;SDS011;35355;49.198;-0.368;2023-04-01T18:44:14;11.60;;;1.52;;
49460;SDS011;35355;49.198;-0.368;2023-04-01T18:58:32;12.70;;;2.10;;
49460;SDS011;35355;49.198;-0.368;2023-04-01T19:00:46;13.60;;;1.30;;
49460;SDS011;35355;49.198;-0.368;2023-04-01T19:03:21;14.10;;;1.80;;
49460;SDS011;35355;49.198;-0.368;2023-04-01T19:05:51;7.30;;;1.17;;
49460;SDS011;35355;49.198;-0.368;2023-04-01T19:10:53;8.57;;;0.90;;
49460;SDS011;35355;49.198;-0.368;2023-04-01T19:16:00;8.82;;;1.05;;
49460;SDS011;35355;49.198;-0.368;2023-04-01T19:21:01;10.20;;;0.90;;
49460;SDS011;35355;49.198;-0.368;2023-04-01T19:31:55;10.13;;;1.77;;
49460;SDS011;35355;49.198;-0.368;2023-04-01T19:45:48;6.40;;;0.70;;
49460;SDS011;35355;49.198;-0.368;2023-04-01T19:50:53;4.95;;;1.15;;
49460;SDS011;35355;49.198;-0.368;2023-04-01T19:53:29;7.10;;;0.73;;
49460;SDS011;35355;49.198;-0.368;2023-04-01T19:56:17;6.72;;;1.23;;
49460;SDS011;35355;49.198;-0.368;2023-04-01T20:01:21;11.00;;;1.65;;
49460;SDS011;35355;49.198;-0.368;2023-04-01T20:03:58;3.47;;;0.75;;
49460;SDS011;35355;49.198;-0.368;2023-04-01T20:06:35;5.18;;;1.00;;
49460;SDS011;35355;49.198;-0.368;2023-04-01T20:12:00;5.47;;;1.13;;
49460;SDS011;35355;49.198;-0.368;2023-04-01T20:14:50;7.00;;;1.20;;
49460;SDS011;35355;49.198;-0.368;2023-04-01T20:22:38;8.73;;;2.13;;
49460;SDS011;35355;49.198;-0.368;2023-04-01T20:25:30;10.00;;;1.65;;
49460;SDS011;35355;49.198;-0.368;2023-04-01T20:28:14;5.50;;;1.13;;
49460;SDS011;35355;49.198;-0.368;2023-04-01T20:31:04;3.17;;;1.15;;
49460;SDS011;35355;49.198;-0.368;2023-04-01T20:44:31;3.60;;;0.85;;
49460;SDS011;35355;49.198;-0.368;2023-04-01T20:52:25;8.57;;;1.50;;
49460;SDS011;35355;49.198;-0.368;2023-04-01T20:57:29;4.38;;;0.70;;
49460;SDS011;35355;49.198;-0.368;2023-04-01T21:31:45;2.78;;;1.08;;
49460;SDS011;35355;49.198;-0.368;2023-04-01T21:37:35;7.32;;;1.60;;
49460;SDS011;35355;49.198;-0.368;2023-04-01T22:18:45;5.93;;;1.77;;
49460;SDS011;35355;49.198;-0.368;2023-04-01T22:21:31;9.05;;;1.67;;
49460;SDS011;35355;49.198;-0.368;2023-04-01T22:24:07;6.45;;;1.70;;
49460;SDS011;35355;49.198;-0.368;2023-04-01T22:29:06;6.53;;;2.08;;
49460;SDS011;35355;49.198;-0.368;2023-04-01T22:31:39;9.70;;;1.90;;
49460;SDS011;35355;49.198;-0.368;2023-04-01T22:50:32;6.13;;;2.00;;
49460;SDS011;35355;49.198;-0.368;2023-04-01T22:53:14;6.60;;;2.10;;
49460;SDS011;35355;49.198;-0.368;2023-04-01T22:55:50;5.65;;;1.98;;
49460;SDS011;35355;49.198;-0.368;2023-04-01T22:58:21;11.52;;;3.17;;
49460;SDS011;35355;49.198;-0.368;2023-04-01T23:00:56;6.32;;;2.20;;
49460;SDS011;35355;49.198;-0.368;2023-04-01T23:03:36;8.40;;;2.22;;
49460;SDS011;35355;49.198;-0.368;2023-04-01T23:06:05;8.60;;;2.35;;
49460;SDS011;35355;49.198;-0.368;2023-04-01T23:08:44;6.45;;;2.45;;
49460;SDS011;35355;49.198;-0.368;2023-04-01T23:11:14;5.90;;;2.28;;
49460;SDS011;35355;49.198;-0.368;2023-04-01T23:13:50;4.22;;;1.50;;
49460;SDS011;35355;49.198;-0.368;2023-04-01T23:16:30;3.08;;;1.20;;
49460;SDS011;35355;49.198;-0.368;2023-04-01T23:21:41;4.80;;;1.77;;
49460;SDS011;35355;49.198;-0.368;2023-04-01T23:24:21;7.47;;;2.45;;
49460;SDS011;35355;49.198;-0.368;2023-04-01T23:29:21;5.80;;;1.60;;
49460;SDS011;35355;49.198;-0.368;2023-04-01T23:31:48;10.13;;;2.22;;
49460;SDS011;35355;49.198;-0.368;2023-04-01T23:34:26;7.10;;;1.83;;
49460;SDS011;35355;49.198;-0.368;2023-04-01T23:36:56;5.78;;;2.40;;
49460;SDS011;35355;49.198;-0.368;2023-04-01T23:39:38;9.30;;;2.72;;
49460;SDS011;35355;49.198;-0.368;2023-04-01T23:44:50;11.18;;;2.40;;
49460;SDS011;35355;49.198;-0.368;2023-04-01T23:47:39;5.30;;;2.10;;
49460;SDS011;35355;49.198;-0.368;2023-04-01T23:50:14;5.88;;;2.45;;
49460;SDS011;35355;49.198;-0.368;2023-04-01T23:52:44;7.07;;;3.08;;
49460;SDS011;35355;49.198;-0.368;2023-04-01T23:55:13;5.85;;;2.30;;
49460;SDS011;35355;49.198;-0.368;2023-04-01T23:57:43;9.05;;;2.58;;
